createdAt,value
2018-06-13T00:01:45.771Z,17.87
2018-06-13T00:04:13.922Z,17.40
2018-06-13T00:06:42.113Z,16.50
2018-06-13T00:09:10.281Z,16.03
2018-06-13T00:11:38.445Z,15.07
2018-06-13T00:14:06.641Z,16.03
2018-06-13T00:16:34.560Z,15.33
2018-06-13T00:19:02.733Z,16.67
2018-06-13T00:21:30.897Z,14.93
2018-06-13T00:23:59.073Z,14.93
2018-06-13T00:26:27.259Z,15.77
2018-06-13T00:28:55.453Z,15.60
2018-06-13T00:31:23.645Z,14.33
2018-06-13T00:33:51.816Z,14.87
2018-06-13T00:36:20.002Z,15.00
2018-06-13T00:38:48.186Z,14.77
2018-06-13T00:41:16.110Z,15.33
2018-06-13T00:43:44.275Z,15.23
2018-06-13T00:46:12.445Z,15.33
2018-06-13T00:48:40.609Z,15.70
2018-06-13T00:51:08.769Z,15.10
2018-06-13T00:53:36.926Z,15.00
2018-06-13T00:56:16.321Z,14.93
2018-06-13T00:58:44.514Z,14.47
2018-06-13T01:01:12.691Z,15.37
2018-06-13T01:03:40.849Z,15.03
2018-06-13T01:06:09.019Z,15.07
2018-06-13T01:08:37.214Z,15.53
2018-06-13T01:11:05.371Z,14.70
2018-06-13T01:13:33.599Z,15.70
2018-06-13T01:16:01.770Z,15.10
2018-06-13T01:18:29.955Z,14.40
2018-06-13T01:20:58.143Z,15.07
2018-06-13T01:23:26.353Z,14.97
2018-06-13T01:25:54.526Z,14.30
2018-06-13T01:28:22.711Z,14.63
2018-06-13T01:30:50.893Z,15.03
2018-06-13T01:33:19.070Z,15.83
2018-06-13T01:35:47.247Z,15.20
2018-06-13T01:38:15.189Z,15.77
2018-06-13T01:40:43.394Z,14.67
2018-06-13T01:43:11.389Z,16.20
2018-06-13T01:45:39.654Z,16.40
2018-06-13T01:48:07.959Z,17.23
2018-06-13T01:50:36.260Z,16.97
2018-06-13T01:53:04.546Z,18.03
2018-06-13T01:55:32.929Z,17.87
2018-06-13T01:58:01.226Z,17.70
2018-06-13T02:00:29.309Z,17.03
2018-06-13T02:02:57.579Z,18.57
2018-06-13T02:05:25.649Z,17.50
2018-06-13T02:07:53.665Z,17.77
2018-06-13T02:10:21.911Z,17.80
2018-06-13T02:12:50.190Z,17.87
2018-06-13T02:15:18.443Z,18.27
2018-06-13T02:17:46.657Z,16.47
2018-06-13T02:20:14.929Z,15.80
2018-06-13T02:22:43.154Z,20.20
2018-06-13T02:25:11.362Z,19.43
2018-06-13T02:27:39.537Z,19.17
2018-06-13T02:30:07.705Z,18.90
2018-06-13T02:32:35.898Z,19.93
2018-06-13T02:35:04.077Z,20.57
2018-06-13T02:37:32.233Z,21.03
2018-06-13T02:40:00.419Z,20.87
2018-06-13T02:42:28.581Z,22.07
2018-06-13T02:44:56.755Z,22.83
2018-06-13T02:47:24.925Z,22.83
2018-06-13T02:49:53.099Z,21.73
2018-06-13T02:52:21.028Z,22.87
2018-06-13T02:54:49.195Z,23.43
2018-06-13T02:57:17.356Z,22.67
2018-06-13T02:59:45.526Z,22.60
2018-06-13T03:02:13.679Z,21.80
2018-06-13T03:04:41.898Z,23.27
2018-06-13T03:07:10.154Z,22.77
2018-06-13T03:09:38.448Z,23.20
2018-06-13T03:12:06.713Z,23.30
2018-06-13T03:14:35.050Z,22.57
2018-06-13T03:17:03.283Z,23.20
2018-06-13T03:19:31.535Z,23.07
2018-06-13T03:21:59.806Z,22.73
2018-06-13T03:24:28.069Z,23.20
2018-06-13T03:26:56.271Z,23.17
2018-06-13T03:29:24.497Z,23.20
2018-06-13T03:31:52.722Z,24.07
2018-06-13T03:34:21.060Z,23.97
2018-06-13T03:36:49.338Z,22.87
2018-06-13T03:39:17.572Z,23.07
2018-06-13T03:41:45.826Z,23.67
2018-06-13T03:44:14.063Z,24.23
2018-06-13T03:46:42.382Z,24.27
2018-06-13T03:49:10.608Z,23.53
2018-06-13T03:51:38.929Z,23.23
2018-06-13T03:54:07.212Z,22.60
2018-06-13T03:56:35.381Z,23.90
2018-06-13T03:59:03.537Z,23.67
2018-06-13T04:01:31.705Z,23.83
2018-06-13T04:03:59.868Z,23.33
2018-06-13T04:06:28.067Z,22.33
2018-06-13T04:08:56.250Z,24.73
2018-06-13T04:11:24.421Z,24.13
2018-06-13T04:13:52.598Z,23.90
2018-06-13T04:16:20.762Z,25.30
2018-06-13T04:18:48.917Z,24.17
2018-06-13T04:21:17.075Z,25.10
2018-06-13T04:23:45.246Z,25.87
2018-06-13T04:26:13.183Z,28.00
2018-06-13T04:28:42.189Z,25.07
2018-06-13T04:31:10.362Z,26.97
2018-06-13T04:33:38.542Z,24.93
2018-06-13T04:36:06.802Z,26.23
2018-06-13T04:38:34.985Z,32.97
2018-06-13T04:41:03.186Z,25.30
2018-06-13T04:43:31.382Z,26.40
2018-06-13T04:45:59.624Z,25.37
2018-06-13T04:48:27.561Z,25.33
2018-06-13T04:50:55.721Z,24.60
2018-06-13T04:53:23.877Z,25.07
2018-06-13T04:55:52.046Z,27.50
2018-06-13T04:58:20.286Z,25.87
2018-06-13T05:00:48.410Z,26.50
2018-06-13T05:03:16.559Z,25.07
2018-06-13T05:05:44.749Z,23.60
2018-06-13T05:08:12.918Z,21.97
2018-06-13T05:10:41.094Z,22.33
2018-06-13T05:13:09.284Z,22.67
2018-06-13T05:15:37.458Z,22.17
2018-06-13T05:18:05.633Z,21.60
2018-06-13T05:20:33.769Z,22.53
2018-06-13T05:23:01.931Z,21.70
2018-06-13T05:25:29.841Z,20.43
2018-06-13T05:27:58.014Z,20.47
2018-06-13T05:30:26.169Z,20.80
2018-06-13T05:32:54.414Z,20.57
2018-06-13T05:35:22.347Z,20.37
2018-06-13T05:37:50.561Z,17.73
2018-06-13T05:40:18.742Z,17.17
2018-06-13T05:42:46.660Z,17.67
2018-06-13T05:45:14.833Z,16.93
2018-06-13T05:47:43.022Z,16.17
2018-06-13T05:50:11.167Z,15.30
2018-06-13T05:52:39.354Z,15.73
2018-06-13T05:55:07.514Z,15.17
2018-06-13T05:57:35.697Z,14.17
2018-06-13T06:00:03.922Z,15.00
2018-06-13T06:02:32.104Z,14.33
2018-06-13T06:05:00.261Z,13.77
2018-06-13T06:07:28.463Z,13.77
2018-06-13T06:09:56.646Z,13.73
2018-06-13T06:12:24.806Z,11.50
2018-06-13T06:14:52.974Z,10.20
2018-06-13T06:17:21.149Z,10.20
2018-06-13T06:19:49.057Z,9.93
2018-06-13T06:22:17.287Z,8.90
2018-06-13T06:24:45.465Z,9.57
2018-06-13T06:27:13.420Z,6.97
2018-06-13T06:29:41.561Z,7.03
2018-06-13T06:32:09.734Z,6.57
2018-06-13T06:34:37.922Z,6.40
2018-06-13T06:37:06.114Z,5.83
2018-06-13T06:39:34.305Z,6.03
2018-06-13T06:42:02.508Z,5.60
2018-06-13T06:44:30.654Z,6.23
2018-06-13T06:46:58.586Z,6.20
2018-06-13T06:49:26.753Z,5.43
2018-06-13T06:51:54.949Z,5.70
2018-06-13T06:54:23.140Z,6.03
2018-06-13T06:56:51.313Z,5.60
2018-06-13T06:59:19.220Z,5.50
2018-06-13T07:01:47.385Z,5.50
2018-06-13T07:04:15.545Z,4.70
2018-06-13T07:06:43.694Z,4.40
2018-06-13T07:09:11.624Z,4.33
2018-06-13T07:11:39.784Z,3.27
2018-06-13T07:14:07.925Z,3.80
2018-06-13T07:16:36.093Z,5.50
2018-06-13T07:19:04.374Z,4.33
2018-06-13T07:21:32.461Z,3.70
2018-06-13T07:24:00.630Z,4.17
2018-06-13T07:26:28.761Z,3.17
2018-06-13T07:28:56.943Z,3.43
2018-06-13T07:31:25.090Z,3.33
2018-06-13T07:33:53.305Z,4.40
2018-06-13T07:36:21.473Z,4.93
2018-06-13T07:38:49.659Z,4.87
2018-06-13T07:41:17.864Z,4.53
2018-06-13T07:43:46.115Z,3.97
2018-06-13T07:46:14.281Z,4.70
2018-06-13T07:48:42.217Z,4.13
2018-06-13T07:51:10.407Z,4.20
2018-06-13T07:53:38.609Z,4.17
2018-06-13T07:56:06.790Z,4.00
2018-06-13T07:58:34.966Z,3.73
2018-06-13T08:01:03.126Z,3.23
2018-06-13T08:03:31.314Z,3.30
2018-06-13T08:05:59.458Z,3.20
2018-06-13T08:08:27.693Z,2.73
2018-06-13T08:10:55.784Z,2.60
2018-06-13T08:13:23.970Z,2.53
2018-06-13T08:15:52.117Z,2.23
2018-06-13T08:18:20.317Z,2.30
2018-06-13T08:20:48.493Z,2.17
2018-06-13T08:23:16.653Z,1.90
2018-06-13T08:25:44.866Z,2.20
2018-06-13T08:28:13.049Z,1.90
2018-06-13T08:30:41.218Z,1.70
2018-06-13T08:33:09.142Z,1.57
2018-06-13T08:35:37.356Z,1.87
2018-06-13T08:38:05.646Z,2.10
2018-06-13T08:40:33.802Z,1.90
2018-06-13T08:43:02.007Z,1.77
2018-06-13T08:45:30.179Z,1.90
2018-06-13T08:47:58.334Z,1.70
2018-06-13T08:50:26.517Z,1.87
2018-06-13T08:52:54.680Z,2.00
2018-06-13T08:55:22.879Z,2.70
2018-06-13T08:57:50.789Z,2.00
2018-06-13T09:00:18.986Z,2.07
2018-06-13T09:02:46.892Z,1.87
2018-06-13T09:05:15.070Z,2.13
2018-06-13T09:07:43.221Z,2.37
2018-06-13T09:10:11.434Z,3.60
2018-06-13T09:12:39.629Z,3.53
2018-06-13T09:15:07.809Z,4.73
2018-06-13T09:17:35.997Z,5.03
2018-06-13T09:20:04.182Z,5.13
2018-06-13T09:22:32.419Z,5.30
2018-06-13T09:25:00.541Z,5.10
2018-06-13T09:27:28.713Z,5.03
2018-06-13T09:29:56.638Z,4.83
2018-06-13T09:32:24.815Z,5.40
2018-06-13T09:34:53.098Z,5.57
2018-06-13T09:37:21.338Z,5.20
2018-06-13T09:39:50.610Z,5.40
2018-06-13T09:42:18.840Z,8.00
2018-06-13T09:44:47.080Z,4.80
2018-06-13T09:47:23.387Z,13.90
2018-06-13T09:49:43.470Z,5.03
2018-06-13T09:52:11.783Z,4.80
2018-06-13T09:54:39.718Z,14.57
2018-06-13T09:57:07.886Z,5.27
2018-06-13T09:59:40.326Z,4.57
2018-06-13T10:02:14.156Z,6.37
2018-06-13T10:04:42.383Z,5.53
2018-06-13T10:07:10.735Z,7.60
2018-06-13T10:09:38.925Z,3.87
2018-06-13T10:12:06.869Z,4.33
2018-06-13T10:14:35.040Z,4.30
2018-06-13T10:17:03.254Z,4.47
2018-06-13T10:19:31.225Z,4.00
2018-06-13T10:21:59.182Z,4.27
2018-06-13T10:24:27.161Z,4.23
2018-06-13T10:26:55.427Z,4.07
2018-06-13T10:29:23.685Z,4.30
2018-06-13T10:31:51.880Z,3.47
2018-06-13T10:34:19.804Z,3.73
2018-06-13T10:36:48.001Z,3.40
2018-06-13T10:39:16.223Z,3.23
2018-06-13T10:41:44.434Z,3.00
2018-06-13T10:44:12.637Z,4.03
2018-06-13T10:46:40.815Z,3.13
2018-06-13T10:49:08.724Z,3.20
2018-06-13T10:51:36.930Z,3.33
2018-06-13T10:54:05.130Z,3.63
2018-06-13T10:56:33.098Z,3.43
2018-06-13T10:59:01.280Z,4.70
2018-06-13T11:01:29.243Z,4.63
2018-06-13T11:03:57.158Z,4.23
2018-06-13T11:06:25.350Z,4.50
2018-06-13T11:08:53.539Z,4.70
2018-06-13T11:11:21.710Z,4.43
2018-06-13T11:13:49.898Z,4.40
2018-06-13T11:16:18.103Z,4.50
2018-06-13T11:18:46.294Z,4.40
2018-06-13T11:21:15.475Z,4.60
2018-06-13T11:23:43.696Z,4.70
2018-06-13T11:26:11.910Z,4.77
2018-06-13T11:28:40.103Z,4.93
2018-06-13T11:31:08.295Z,4.80
2018-06-13T11:33:36.497Z,4.80
2018-06-13T11:36:04.729Z,4.63
2018-06-13T11:38:32.943Z,4.33
2018-06-13T11:41:01.169Z,4.57
2018-06-13T11:43:29.324Z,4.50
2018-06-13T11:45:57.525Z,4.53
2018-06-13T11:48:25.741Z,4.30
2018-06-13T11:50:53.946Z,4.37
2018-06-13T11:53:22.144Z,4.40
2018-06-13T11:55:50.314Z,5.30
2018-06-13T11:58:18.277Z,5.97
2018-06-13T12:00:46.206Z,5.13
2018-06-13T12:03:14.385Z,7.03
2018-06-13T12:05:42.585Z,5.97
2018-06-13T12:08:10.782Z,4.13
2018-06-13T12:10:38.996Z,3.67
2018-06-13T12:13:07.202Z,3.93
2018-06-13T12:15:35.550Z,3.30
2018-06-13T12:18:03.745Z,3.60
2018-06-13T12:20:31.930Z,2.80
2018-06-13T12:23:00.117Z,2.73
2018-06-13T12:25:28.358Z,4.47
2018-06-13T12:27:56.554Z,2.97
2018-06-13T12:30:24.741Z,2.83
2018-06-13T12:32:52.713Z,3.57
2018-06-13T12:35:20.684Z,2.43
2018-06-13T12:37:48.910Z,3.43
2018-06-13T12:40:17.171Z,3.17
2018-06-13T12:42:45.314Z,4.93
2018-06-13T12:45:13.591Z,11.80
2018-06-13T12:47:41.845Z,6.97
2018-06-13T12:50:10.144Z,2.90
2018-06-13T12:52:38.383Z,3.03
2018-06-13T12:55:06.647Z,2.50
2018-06-13T12:57:34.866Z,3.50
2018-06-13T13:00:03.137Z,3.60
2018-06-13T13:02:31.505Z,3.03
2018-06-13T13:04:59.800Z,3.20
2018-06-13T13:07:28.140Z,3.10
2018-06-13T13:09:56.474Z,2.80
2018-06-13T13:12:24.780Z,3.03
2018-06-13T13:14:53.044Z,3.13
2018-06-13T13:17:21.293Z,3.13
2018-06-13T13:19:49.553Z,3.77
2018-06-13T13:22:17.833Z,3.27
2018-06-13T13:24:46.089Z,2.73
2018-06-13T13:27:14.492Z,3.50
2018-06-13T13:29:42.763Z,3.20
2018-06-13T13:32:10.915Z,2.87
2018-06-13T13:34:39.159Z,3.27
2018-06-13T13:37:07.361Z,2.90
2018-06-13T13:39:35.576Z,3.20
2018-06-13T13:42:03.806Z,3.30
2018-06-13T13:44:32.062Z,3.13
2018-06-13T13:47:00.265Z,3.57
2018-06-13T13:49:28.512Z,3.13
2018-06-13T13:51:56.703Z,3.20
2018-06-13T13:54:24.890Z,2.80
2018-06-13T13:56:53.085Z,2.67
2018-06-13T13:59:21.057Z,2.93
2018-06-13T14:01:49.222Z,2.83
2018-06-13T14:04:18.170Z,2.70
2018-06-13T14:06:46.350Z,2.83
2018-06-13T14:09:14.546Z,2.70
2018-06-13T14:11:42.808Z,2.60
2018-06-13T14:14:11.068Z,2.83
2018-06-13T14:16:39.342Z,2.60
2018-06-13T14:19:07.614Z,3.93
2018-06-13T14:21:35.818Z,3.50
2018-06-13T14:24:04.030Z,3.23
2018-06-13T14:26:31.996Z,3.87
2018-06-13T14:28:59.961Z,3.57
2018-06-13T14:31:27.941Z,4.07
2018-06-13T14:33:55.923Z,4.07
2018-06-13T14:36:24.174Z,4.63
2018-06-13T14:38:52.140Z,4.67
2018-06-13T14:41:20.112Z,4.13
2018-06-13T14:43:48.388Z,4.60
2018-06-13T14:46:16.713Z,4.07
2018-06-13T14:48:44.928Z,4.73
2018-06-13T14:51:13.266Z,5.00
2018-06-13T14:53:41.440Z,4.80
2018-06-13T14:56:15.016Z,5.03
2018-06-13T14:58:43.247Z,5.20
2018-06-13T15:01:11.491Z,5.30
2018-06-13T15:03:40.736Z,4.70
2018-06-13T15:06:09.013Z,4.73
2018-06-13T15:08:37.266Z,5.07
2018-06-13T15:11:05.881Z,4.97
2018-06-13T15:13:33.920Z,4.93
2018-06-13T15:16:02.229Z,4.60
2018-06-13T15:18:30.502Z,5.20
2018-06-13T15:20:58.578Z,5.07
2018-06-13T15:23:26.541Z,5.57
2018-06-13T15:25:54.842Z,4.93
2018-06-13T15:28:22.781Z,8.00
2018-06-13T15:30:51.032Z,5.70
2018-06-13T15:33:19.229Z,5.27
2018-06-13T15:35:47.518Z,5.30
2018-06-13T15:38:15.751Z,5.03
2018-06-13T15:40:44.015Z,5.27
2018-06-13T15:43:12.316Z,6.00
2018-06-13T15:45:40.630Z,6.40
2018-06-13T15:48:08.593Z,5.17
2018-06-13T15:50:36.923Z,5.47
2018-06-13T15:53:05.255Z,5.43
2018-06-13T15:55:33.262Z,5.80
2018-06-13T15:58:01.499Z,5.23
2018-06-13T16:00:29.468Z,5.90
2018-06-13T16:02:57.437Z,5.70
2018-06-13T16:05:25.762Z,6.40
2018-06-13T16:07:54.034Z,7.00
2018-06-13T16:10:22.322Z,6.03
2018-06-13T16:12:50.555Z,11.23
2018-06-13T16:15:18.920Z,6.07
2018-06-13T16:17:47.232Z,6.40
2018-06-13T16:20:15.483Z,6.03
2018-06-13T16:22:43.774Z,6.10
2018-06-13T16:25:12.094Z,6.70
2018-06-13T16:27:40.454Z,5.90
2018-06-13T16:30:08.824Z,6.33
2018-06-13T16:32:37.124Z,6.03
2018-06-13T16:35:05.377Z,6.47
2018-06-13T16:37:33.752Z,6.47
2018-06-13T16:40:02.026Z,7.40
2018-06-13T16:42:30.247Z,6.77
2018-06-13T16:44:58.527Z,7.07
2018-06-13T16:47:26.820Z,8.37
2018-06-13T16:49:54.834Z,7.40
2018-06-13T16:53:32.039Z,6.67
2018-06-13T16:56:00.289Z,7.77
2018-06-13T16:58:28.486Z,7.40
2018-06-13T17:00:56.682Z,7.80
2018-06-13T17:03:24.915Z,8.17
2018-06-13T17:05:53.101Z,8.07
2018-06-13T17:08:21.282Z,8.63
2018-06-13T17:10:49.473Z,8.53
2018-06-13T17:13:17.710Z,8.63
2018-06-13T17:15:45.901Z,9.70
2018-06-13T17:18:14.086Z,9.00
2018-06-13T17:20:42.390Z,9.20
2018-06-13T17:23:10.635Z,9.23
2018-06-13T17:25:38.806Z,8.97
2018-06-13T17:28:06.985Z,9.23
2018-06-13T17:30:35.180Z,9.37
2018-06-13T17:33:03.422Z,9.17
2018-06-13T17:35:31.655Z,9.30
2018-06-13T17:37:59.850Z,9.73
2018-06-13T17:40:28.020Z,9.33
2018-06-13T17:42:56.382Z,9.40
2018-06-13T17:45:24.546Z,9.90
2018-06-13T17:47:52.770Z,8.73
2018-06-13T17:50:20.952Z,9.20
2018-06-13T17:52:49.162Z,11.07
2018-06-13T17:55:17.397Z,12.17
2018-06-13T17:57:45.945Z,16.13
2018-06-13T18:00:13.865Z,8.83
2018-06-13T18:02:42.030Z,9.30
2018-06-13T18:05:10.218Z,10.13
2018-06-13T18:07:38.497Z,9.67
2018-06-13T18:10:06.729Z,10.07
2018-06-13T18:12:34.906Z,9.67
2018-06-13T18:15:03.103Z,9.57
2018-06-13T18:17:31.405Z,9.67
2018-06-13T18:19:59.665Z,9.63
2018-06-13T18:22:27.834Z,9.73
2018-06-13T18:24:56.142Z,9.30
2018-06-13T18:27:24.413Z,10.47
2018-06-13T18:29:52.535Z,10.23
2018-06-13T18:32:20.742Z,10.13
2018-06-13T18:34:48.925Z,9.37
2018-06-13T18:37:17.180Z,9.53
2018-06-13T18:39:45.451Z,10.13
2018-06-13T18:42:13.606Z,9.97
2018-06-13T18:44:42.146Z,9.60
2018-06-13T18:47:10.333Z,9.87
2018-06-13T18:49:38.571Z,10.03
2018-06-13T18:52:06.810Z,10.13
2018-06-13T18:54:35.002Z,11.50
2018-06-13T18:57:03.200Z,10.73
2018-06-13T18:59:31.370Z,10.20
2018-06-13T19:01:59.550Z,10.27
2018-06-13T19:04:27.883Z,11.50
2018-06-13T19:06:56.065Z,10.97
2018-06-13T19:09:24.264Z,10.27
2018-06-13T19:11:52.437Z,10.77
2018-06-13T19:14:20.622Z,10.30
2018-06-13T19:16:48.798Z,14.30
2018-06-13T19:19:17.079Z,10.03
2018-06-13T19:21:45.278Z,10.00
2018-06-13T19:24:13.502Z,10.93
2018-06-13T19:26:41.679Z,13.37
2018-06-13T19:29:09.850Z,12.50
2018-06-13T19:31:38.029Z,12.10
2018-06-13T19:34:06.202Z,11.73
2018-06-13T19:36:34.407Z,11.77
2018-06-13T19:39:02.670Z,12.40
2018-06-13T19:41:30.878Z,11.73
2018-06-13T19:43:59.098Z,12.03
2018-06-13T19:46:27.275Z,13.70
2018-06-13T19:48:55.854Z,16.10
2018-06-13T19:51:24.078Z,13.53
2018-06-13T19:53:57.717Z,13.83
2018-06-13T19:56:31.342Z,20.07
2018-06-13T19:58:59.627Z,22.30
2018-06-13T20:01:27.829Z,14.60
2018-06-13T20:04:01.262Z,13.43
2018-06-13T20:06:29.418Z,11.90
2018-06-13T20:08:57.642Z,11.40
2018-06-13T20:11:25.843Z,11.87
2018-06-13T20:13:59.382Z,11.83
2018-06-13T20:16:38.561Z,10.53
2018-06-13T20:19:12.259Z,11.87
2018-06-13T20:21:40.461Z,11.63
2018-06-13T20:24:08.670Z,11.90
2018-06-13T20:26:41.973Z,13.03
2018-06-13T20:29:15.454Z,10.37
2018-06-13T20:31:45.604Z,10.50
2018-06-13T20:34:13.836Z,8.80
2018-06-13T20:36:42.133Z,8.93
2018-06-13T20:39:11.081Z,9.40
2018-06-13T20:41:39.949Z,8.97
2018-06-13T20:44:08.522Z,9.33
2018-06-13T20:46:36.902Z,9.03
2018-06-13T20:49:05.339Z,9.57
2018-06-13T20:51:33.550Z,10.60
2018-06-13T20:54:01.789Z,10.20
2018-06-13T20:56:30.306Z,10.40
2018-06-13T20:58:58.462Z,9.10
2018-06-13T21:01:26.465Z,9.87
2018-06-13T21:03:54.763Z,8.87
2018-06-13T21:06:22.941Z,9.00
2018-06-13T21:08:51.104Z,9.17
2018-06-13T21:11:19.282Z,9.50
2018-06-13T21:13:47.451Z,8.13
2018-06-13T21:16:16.190Z,8.53
2018-06-13T21:18:44.158Z,8.47
2018-06-13T21:21:12.336Z,8.00
2018-06-13T21:23:40.301Z,8.07
2018-06-13T21:26:08.481Z,8.03
2018-06-13T21:28:36.440Z,9.73
2018-06-13T21:31:04.648Z,11.93
2018-06-13T21:33:32.877Z,12.57
2018-06-13T21:36:01.052Z,12.40
2018-06-13T21:38:29.297Z,12.40
2018-06-13T21:40:57.504Z,11.27
2018-06-13T21:43:25.710Z,10.27
2018-06-13T21:45:53.902Z,10.23
2018-06-13T21:48:22.074Z,10.73
2018-06-13T21:50:50.265Z,9.77
2018-06-13T21:53:18.414Z,9.80
2018-06-13T21:55:46.595Z,10.07
2018-06-13T21:58:14.781Z,10.63
2018-06-13T22:00:42.953Z,10.10
2018-06-13T22:03:11.114Z,10.50
2018-06-13T22:05:39.272Z,9.70
2018-06-13T22:08:07.487Z,9.50
2018-06-13T22:10:35.661Z,9.83
2018-06-13T22:13:03.826Z,10.87
2018-06-13T22:15:32.014Z,11.20
2018-06-13T22:18:00.193Z,11.93
2018-06-13T22:20:28.471Z,11.40
2018-06-13T22:22:56.726Z,11.20
2018-06-13T22:25:24.909Z,12.27
2018-06-13T22:27:53.105Z,13.43
2018-06-13T22:30:21.304Z,14.27
2018-06-13T22:32:49.492Z,17.47
2018-06-13T22:35:17.426Z,11.03
2018-06-13T22:37:45.586Z,11.33
2018-06-13T22:40:13.777Z,11.77
2018-06-13T22:42:41.976Z,12.83
2018-06-13T22:45:10.109Z,12.13
2018-06-13T22:47:38.294Z,14.87
2018-06-13T22:50:06.488Z,12.10
2018-06-13T22:52:34.684Z,17.47
2018-06-13T22:55:02.882Z,14.40
2018-06-13T22:57:31.062Z,11.80
2018-06-13T22:59:59.298Z,11.77
2018-06-13T23:02:27.472Z,13.23
2018-06-13T23:04:55.400Z,11.73
2018-06-13T23:07:23.614Z,11.43
2018-06-13T23:09:51.554Z,11.50
2018-06-13T23:12:19.762Z,11.17
2018-06-13T23:14:47.921Z,11.47
2018-06-13T23:17:16.106Z,12.77
2018-06-13T23:19:44.099Z,13.17
2018-06-13T23:22:12.219Z,15.83
2018-06-13T23:24:40.394Z,11.23
2018-06-13T23:27:08.609Z,11.70
2018-06-13T23:29:36.789Z,11.80
2018-06-13T23:32:04.965Z,13.83
2018-06-13T23:34:33.165Z,11.80
2018-06-13T23:37:01.334Z,11.47
2018-06-13T23:39:29.506Z,11.97
2018-06-13T23:41:57.727Z,12.07
2018-06-13T23:44:25.914Z,12.70
2018-06-13T23:46:54.096Z,11.80
2018-06-13T23:49:22.272Z,11.17
2018-06-13T23:51:50.252Z,11.00
2018-06-13T23:54:18.413Z,12.03
2018-06-13T23:56:46.367Z,11.80
2018-06-13T23:59:14.557Z,11.93
